createdAt,value
2023-04-18T00:01:19.190Z,15.68
2023-04-18T00:03:48.834Z,12.43
2023-04-18T00:06:17.219Z,15.00
2023-04-18T00:08:45.497Z,12.88
2023-04-18T00:11:13.604Z,14.68
2023-04-18T00:13:47.390Z,12.20
2023-04-18T00:16:15.642Z,13.70
2023-04-18T00:18:43.751Z,14.00
2023-04-18T00:21:13.490Z,14.07
2023-04-18T00:23:41.765Z,13.30
2023-04-18T00:26:10.109Z,15.05
2023-04-18T00:28:38.205Z,14.98
2023-04-18T00:31:06.534Z,13.10
2023-04-18T00:33:35.967Z,15.35
2023-04-18T00:36:04.457Z,23.98
2023-04-18T00:38:33.923Z,15.05
2023-04-18T00:41:02.226Z,12.82
2023-04-18T00:43:30.466Z,15.63
2023-04-18T00:46:01.543Z,15.93
2023-04-18T00:48:30.883Z,16.08
2023-04-18T00:51:00.373Z,16.27
2023-04-18T00:53:29.045Z,14.23
2023-04-18T00:55:58.971Z,15.13
2023-04-18T00:58:27.662Z,13.48
2023-04-18T01:00:55.848Z,13.32
2023-04-18T01:03:27.424Z,12.50
2023-04-18T01:05:57.537Z,14.60
2023-04-18T01:08:26.253Z,11.93
2023-04-18T01:10:54.423Z,15.50
2023-04-18T01:13:26.804Z,16.60
2023-04-18T01:15:55.776Z,13.15
2023-04-18T01:18:24.386Z,14.43
2023-04-18T01:20:54.663Z,13.18
2023-04-18T01:23:22.870Z,13.30
2023-04-18T01:25:52.313Z,15.00
2023-04-18T01:28:22.836Z,12.82
2023-04-18T01:30:51.128Z,16.35
2023-04-18T01:33:19.177Z,13.98
2023-04-18T01:35:47.334Z,15.00
2023-04-18T01:38:18.625Z,16.90
2023-04-18T01:40:46.864Z,12.68
2023-04-18T01:43:16.443Z,14.30
2023-04-18T01:45:44.495Z,15.43
2023-04-18T01:48:12.589Z,13.95
2023-04-18T01:50:40.667Z,16.33
2023-04-18T01:53:08.735Z,12.90
2023-04-18T01:55:36.739Z,15.00
2023-04-18T01:58:04.766Z,13.70
2023-04-18T02:00:34.320Z,14.48
2023-04-18T02:03:02.567Z,12.82
2023-04-18T02:05:30.769Z,15.13
2023-04-18T02:07:59.277Z,13.38
2023-04-18T02:10:27.366Z,15.88
2023-04-18T02:12:55.409Z,13.77
2023-04-18T02:15:25.671Z,15.90
2023-04-18T02:17:55.502Z,12.70
2023-04-18T02:20:23.841Z,13.88
2023-04-18T02:22:51.876Z,13.63
2023-04-18T02:25:23.572Z,14.35
2023-04-18T02:27:51.851Z,11.97
2023-04-18T02:30:23.475Z,14.85
2023-04-18T02:32:53.296Z,14.20
2023-04-18T02:35:23.051Z,17.67
2023-04-18T02:37:51.232Z,16.13
2023-04-18T02:40:20.939Z,13.65
2023-04-18T02:42:49.150Z,16.17
2023-04-18T02:45:17.201Z,12.10
2023-04-18T02:47:54.536Z,13.57
2023-04-18T02:50:27.083Z,13.57
2023-04-18T02:52:55.835Z,13.18
2023-04-18T02:55:26.984Z,14.93
2023-04-18T02:57:55.169Z,16.45
2023-04-18T03:00:23.355Z,14.25
2023-04-18T03:02:53.306Z,13.43
2023-04-18T03:05:23.140Z,13.00
2023-04-18T03:07:52.592Z,13.00
2023-04-18T03:10:23.263Z,14.63
2023-04-18T03:12:51.331Z,16.08
2023-04-18T03:15:19.668Z,14.68
2023-04-18T03:17:47.721Z,13.55
2023-04-18T03:20:15.789Z,14.95
2023-04-18T03:22:44.000Z,14.88
2023-04-18T03:25:13.478Z,13.55
2023-04-18T03:27:42.937Z,13.80
2023-04-18T03:30:11.511Z,13.52
2023-04-18T03:32:39.655Z,14.40
2023-04-18T03:35:07.975Z,13.55
2023-04-18T03:37:36.250Z,13.27
2023-04-18T03:40:05.469Z,13.65
2023-04-18T03:42:34.899Z,15.05
2023-04-18T03:45:06.586Z,14.60
2023-04-18T03:47:34.651Z,13.80
2023-04-18T03:50:02.951Z,16.25
2023-04-18T03:52:31.014Z,14.93
2023-04-18T03:54:59.069Z,15.60
2023-04-18T03:57:27.323Z,16.05
2023-04-18T03:59:56.707Z,14.55
2023-04-18T04:02:24.963Z,18.23
2023-04-18T04:04:53.262Z,14.73
2023-04-18T04:07:21.355Z,14.18
2023-04-18T04:09:49.622Z,15.20
2023-04-18T04:12:17.936Z,15.30
2023-04-18T04:14:46.013Z,17.45
2023-04-18T04:17:15.593Z,14.40
2023-04-18T04:19:43.759Z,14.05
2023-04-18T04:22:11.864Z,14.80
2023-04-18T04:24:40.488Z,15.57
2023-04-18T04:27:08.615Z,18.02
2023-04-18T04:29:38.728Z,15.13
2023-04-18T04:32:07.215Z,15.27
2023-04-18T04:34:36.855Z,14.18
2023-04-18T04:37:04.956Z,15.07
2023-04-18T04:39:33.048Z,14.07
2023-04-18T04:42:03.942Z,17.05
2023-04-18T04:44:32.142Z,16.83
2023-04-18T04:47:00.335Z,14.85
2023-04-18T04:49:28.414Z,13.73
2023-04-18T04:51:59.590Z,15.85
2023-04-18T04:54:29.525Z,15.45
2023-04-18T04:56:57.848Z,15.52
2023-04-18T04:59:25.991Z,12.82
2023-04-18T05:01:54.256Z,14.30
2023-04-18T05:04:22.425Z,15.65
2023-04-18T05:06:50.736Z,14.93
2023-04-18T05:09:20.387Z,15.48
2023-04-18T05:11:49.426Z,15.07
2023-04-18T05:14:17.887Z,14.82
2023-04-18T05:16:46.072Z,14.68
2023-04-18T05:19:14.572Z,16.27
2023-04-18T05:21:42.655Z,15.40
2023-04-18T05:24:11.163Z,13.63
2023-04-18T05:26:40.973Z,16.27
2023-04-18T05:29:08.944Z,16.60
2023-04-18T05:31:37.037Z,15.57
2023-04-18T05:34:05.258Z,15.75
2023-04-18T05:36:33.485Z,15.98
2023-04-18T05:39:01.568Z,15.23
2023-04-18T05:41:29.711Z,14.73
2023-04-18T05:44:17.162Z,15.52
2023-04-18T05:46:45.463Z,14.70
2023-04-18T05:49:13.932Z,17.38
2023-04-18T05:51:42.078Z,13.45
2023-04-18T05:54:10.153Z,15.52
2023-04-18T05:56:45.881Z,17.45
2023-04-18T05:59:15.536Z,14.75
2023-04-18T06:01:44.271Z,13.07
2023-04-18T06:04:12.508Z,16.17
2023-04-18T06:06:40.822Z,16.27
2023-04-18T06:09:09.185Z,14.95
2023-04-18T06:11:37.171Z,15.88
2023-04-18T06:14:05.242Z,18.08
2023-04-18T06:16:34.685Z,15.68
2023-04-18T06:19:03.420Z,16.73
2023-04-18T06:21:31.602Z,15.07
2023-04-18T06:24:01.358Z,17.33
2023-04-18T06:26:30.225Z,17.13
2023-04-18T06:28:58.223Z,14.02
2023-04-18T06:31:26.396Z,16.35
2023-04-18T06:33:55.929Z,15.90
2023-04-18T06:36:24.236Z,13.82
2023-04-18T06:38:52.295Z,13.05
2023-04-18T06:41:20.524Z,15.30
2023-04-18T06:44:02.894Z,14.43
2023-04-18T06:46:32.637Z,12.90
2023-04-18T06:49:02.229Z,13.25
2023-04-18T06:51:30.285Z,13.43
2023-04-18T06:53:58.357Z,13.93
2023-04-18T06:56:27.061Z,12.10
2023-04-18T06:58:55.085Z,13.25
2023-04-18T07:01:23.270Z,13.27
2023-04-18T07:03:54.338Z,11.27
2023-04-18T07:06:23.864Z,12.07
2023-04-18T07:09:00.056Z,12.85
2023-04-18T07:11:28.586Z,13.95
2023-04-18T07:13:56.686Z,13.80
2023-04-18T07:16:24.846Z,12.77
2023-04-18T07:18:52.986Z,10.70
2023-04-18T07:21:21.045Z,11.40
2023-04-18T07:23:50.678Z,11.20
2023-04-18T07:26:19.101Z,12.20
2023-04-18T07:28:47.197Z,10.45
2023-04-18T07:31:16.668Z,10.65
2023-04-18T07:33:47.268Z,10.82
2023-04-18T07:36:15.490Z,10.45
2023-04-18T07:38:44.428Z,9.25
2023-04-18T07:41:17.104Z,11.23
2023-04-18T07:43:45.799Z,11.82
2023-04-18T07:46:14.125Z,10.68
2023-04-18T07:48:44.566Z,12.05
2023-04-18T07:51:12.952Z,11.40
2023-04-18T07:53:44.636Z,11.35
2023-04-18T07:56:14.544Z,10.85
2023-04-18T07:58:44.066Z,9.25
2023-04-18T08:01:14.415Z,10.77
2023-04-18T08:03:42.960Z,10.13
2023-04-18T08:06:14.090Z,10.80
2023-04-18T08:08:42.183Z,13.35
2023-04-18T08:11:10.253Z,10.10
2023-04-18T08:13:38.411Z,12.20
2023-04-18T08:16:08.180Z,10.52
2023-04-18T08:18:36.988Z,11.02
2023-04-18T08:21:05.664Z,12.23
2023-04-18T08:23:33.731Z,10.27
2023-04-18T08:26:01.910Z,10.57
2023-04-18T08:28:29.986Z,10.57
2023-04-18T08:30:58.172Z,9.73
2023-04-18T08:33:28.442Z,10.13
2023-04-18T08:35:56.624Z,11.05
2023-04-18T08:38:24.743Z,11.68
2023-04-18T08:40:52.771Z,10.82
2023-04-18T08:43:20.913Z,10.45
2023-04-18T08:45:49.149Z,11.40
2023-04-18T08:48:19.918Z,10.40
2023-04-18T08:50:49.459Z,11.20
2023-04-18T08:53:18.569Z,10.70
2023-04-18T08:55:47.818Z,9.45
2023-04-18T08:58:22.460Z,9.10
2023-04-18T09:00:54.587Z,11.25
2023-04-18T09:03:39.792Z,10.15
2023-04-18T09:06:12.507Z,9.98
2023-04-18T09:08:44.758Z,9.10
2023-04-18T09:11:26.551Z,9.20
2023-04-18T09:13:56.422Z,10.05
2023-04-18T09:16:25.004Z,10.73
2023-04-18T09:19:13.980Z,8.90
2023-04-18T09:21:46.336Z,11.23
2023-04-18T09:24:24.394Z,8.77
2023-04-18T09:26:54.081Z,10.32
2023-04-18T09:29:23.462Z,9.20
2023-04-18T09:32:00.059Z,8.73
2023-04-18T09:34:28.826Z,8.75
2023-04-18T09:37:12.149Z,9.05
2023-04-18T09:39:41.344Z,9.68
2023-04-18T09:42:10.572Z,9.60
2023-04-18T09:44:39.415Z,8.93
2023-04-18T09:47:08.504Z,9.32
2023-04-18T09:49:36.653Z,9.23
2023-04-18T09:52:08.687Z,9.05
2023-04-18T09:54:40.518Z,10.00
2023-04-18T09:57:12.984Z,9.57
2023-04-18T09:59:47.739Z,9.15
2023-04-18T10:02:22.150Z,9.20
2023-04-18T10:04:51.876Z,9.73
2023-04-18T10:07:21.325Z,8.13
2023-04-18T10:09:51.139Z,9.35
2023-04-18T10:12:19.957Z,10.20
2023-04-18T10:14:50.663Z,9.10
2023-04-18T10:17:22.349Z,9.68
2023-04-18T10:20:07.255Z,11.50
2023-04-18T10:22:36.694Z,11.13
2023-04-18T10:25:07.367Z,9.43
2023-04-18T10:28:00.163Z,8.73
2023-04-18T10:30:51.561Z,9.52
2023-04-18T10:33:32.151Z,9.57
2023-04-18T10:36:03.638Z,10.55
2023-04-18T10:38:32.536Z,9.50
2023-04-18T10:41:25.025Z,9.07
2023-04-18T10:44:22.458Z,11.75
2023-04-18T10:47:22.582Z,10.35
2023-04-18T10:49:58.908Z,10.50
2023-04-18T10:52:28.634Z,10.05
2023-04-18T10:55:04.986Z,12.23
2023-04-18T10:57:41.599Z,10.73
2023-04-18T11:00:12.694Z,11.10
2023-04-18T11:02:41.548Z,9.93
2023-04-18T11:05:10.897Z,10.50
2023-04-18T11:07:41.169Z,10.75
2023-04-18T11:10:10.980Z,10.90
2023-04-18T11:12:41.839Z,10.43
2023-04-18T11:15:12.639Z,11.18
2023-04-18T11:17:41.332Z,10.70
2023-04-18T11:20:11.602Z,11.18
2023-04-18T11:22:47.586Z,11.73
2023-04-18T11:25:16.404Z,9.65
2023-04-18T11:27:47.176Z,11.93
2023-04-18T11:30:16.644Z,11.60
2023-04-18T11:32:45.071Z,11.98
2023-04-18T11:35:14.859Z,11.80
2023-04-18T11:37:45.497Z,10.70
2023-04-18T11:40:14.830Z,11.23
2023-04-18T11:42:43.345Z,12.50
2023-04-18T11:45:14.220Z,13.40
2023-04-18T11:47:43.940Z,11.98
2023-04-18T11:50:14.118Z,12.70
2023-04-18T11:52:43.668Z,12.20
2023-04-18T11:55:14.219Z,11.32
2023-04-18T11:57:42.717Z,11.43
2023-04-18T12:00:13.693Z,12.45
2023-04-18T12:02:43.750Z,11.27
2023-04-18T12:05:14.524Z,13.45
2023-04-18T12:07:45.912Z,12.73
2023-04-18T12:10:26.077Z,12.93
2023-04-18T12:12:56.261Z,14.98
2023-04-18T12:15:28.301Z,13.85
2023-04-18T12:18:00.357Z,12.50
2023-04-18T12:20:36.476Z,14.65
2023-04-18T12:23:05.005Z,13.48
2023-04-18T12:25:33.698Z,14.20
2023-04-18T12:28:04.619Z,15.25
2023-04-18T12:30:37.682Z,14.00
2023-04-18T12:33:06.739Z,13.18
2023-04-18T12:35:34.839Z,14.65
2023-04-18T12:38:03.956Z,14.48
2023-04-18T12:40:33.559Z,14.63
2023-04-18T12:43:03.530Z,14.57
2023-04-18T12:45:33.794Z,14.45
2023-04-18T12:48:01.935Z,16.02
2023-04-18T12:50:30.101Z,14.80
2023-04-18T12:53:01.189Z,14.27
2023-04-18T12:55:29.604Z,15.32
2023-04-18T12:57:58.232Z,17.02
2023-04-18T13:00:30.632Z,16.20
2023-04-18T13:03:00.904Z,19.08
2023-04-18T13:05:33.684Z,17.27
2023-04-18T13:10:34.034Z,16.02
2023-04-18T13:13:02.167Z,15.57
2023-04-18T13:15:30.392Z,13.88
2023-04-18T13:18:04.434Z,15.40
2023-04-18T13:20:33.342Z,16.80
2023-04-18T13:23:03.012Z,16.23
2023-04-18T13:25:33.433Z,17.27
2023-04-18T13:28:01.729Z,15.98
2023-04-18T13:30:29.949Z,17.38
2023-04-18T13:32:59.479Z,17.75
2023-04-18T13:35:27.625Z,16.17
2023-04-18T13:37:56.125Z,15.57
2023-04-18T13:40:25.329Z,15.63
2023-04-18T13:42:53.430Z,16.25
2023-04-18T13:45:21.725Z,16.15
2023-04-18T13:47:49.905Z,14.70
2023-04-18T13:50:20.346Z,15.35
2023-04-18T13:52:49.370Z,16.63
2023-04-18T13:55:17.945Z,16.73
2023-04-18T13:57:46.012Z,15.98
2023-04-18T14:00:15.346Z,16.05
2023-04-18T14:02:43.771Z,14.35
2023-04-18T14:05:12.242Z,15.82
2023-04-18T14:07:42.038Z,14.93
2023-04-18T14:10:10.860Z,15.80
2023-04-18T14:12:40.132Z,16.83
2023-04-18T14:15:09.654Z,14.82
2023-04-18T14:17:37.826Z,14.40
2023-04-18T14:20:07.898Z,14.07
2023-04-18T14:22:36.079Z,15.05
2023-04-18T14:25:06.438Z,15.05
2023-04-18T14:27:34.592Z,15.02
2023-04-18T14:30:02.676Z,15.35
2023-04-18T14:32:31.100Z,13.95
2023-04-18T14:34:59.958Z,14.80
2023-04-18T14:37:27.998Z,14.57
2023-04-18T14:39:56.152Z,15.10
2023-04-18T14:42:25.890Z,14.45
2023-04-18T14:44:54.042Z,14.27
2023-04-18T14:47:24.341Z,14.90
2023-04-18T14:49:52.623Z,14.35
2023-04-18T14:52:20.731Z,14.00
2023-04-18T14:54:49.176Z,13.75
2023-04-18T14:57:17.281Z,14.98
2023-04-18T14:59:46.696Z,16.20
2023-04-18T15:02:15.005Z,13.98
2023-04-18T15:04:43.322Z,14.00
2023-04-18T15:07:11.494Z,15.18
2023-04-18T15:09:39.701Z,13.25
2023-04-18T15:12:08.170Z,13.38
2023-04-18T15:14:39.957Z,13.88
2023-04-18T15:17:09.467Z,12.55
2023-04-18T15:19:37.679Z,14.43
2023-04-18T15:22:05.775Z,13.70
2023-04-18T15:24:33.903Z,14.48
2023-04-18T15:27:02.038Z,15.82
2023-04-18T15:29:30.426Z,13.48
2023-04-18T15:31:58.555Z,14.88
2023-04-18T15:34:28.033Z,14.40
2023-04-18T15:36:56.119Z,15.60
2023-04-18T15:39:24.212Z,14.40
2023-04-18T15:41:54.503Z,13.43
2023-04-18T15:44:22.700Z,13.40
2023-04-18T15:46:51.218Z,13.93
2023-04-18T15:49:19.241Z,12.82
2023-04-18T15:51:48.725Z,13.88
2023-04-18T15:54:17.067Z,14.23
2023-04-18T15:56:45.389Z,14.90
2023-04-18T15:59:13.730Z,12.85
2023-04-18T16:01:44.443Z,11.48
2023-04-18T16:04:14.357Z,13.80
2023-04-18T16:06:43.327Z,12.63
2023-04-18T16:09:13.105Z,12.90
2023-04-18T16:11:41.548Z,12.57
2023-04-18T16:14:09.757Z,13.13
2023-04-18T16:16:37.896Z,14.55
2023-04-18T16:19:06.298Z,12.57
2023-04-18T16:21:36.678Z,12.63
2023-04-18T16:24:04.875Z,15.88
2023-04-18T16:26:34.450Z,12.27
2023-04-18T16:29:02.642Z,14.77
2023-04-18T16:31:30.761Z,11.80
2023-04-18T16:33:58.843Z,14.75
2023-04-18T16:36:27.306Z,11.90
2023-04-18T16:38:55.412Z,13.95
2023-04-18T16:41:23.616Z,12.95
2023-04-18T16:43:53.890Z,12.02
2023-04-18T16:46:22.022Z,13.00
2023-04-18T16:48:51.864Z,13.35
2023-04-18T16:51:20.656Z,9.75
2023-04-18T16:53:49.219Z,13.52
2023-04-18T16:56:17.360Z,12.50
2023-04-18T16:58:45.469Z,12.90
2023-04-18T17:01:15.007Z,15.02
2023-04-18T17:03:43.235Z,12.00
2023-04-18T17:06:11.536Z,12.73
2023-04-18T17:08:39.685Z,12.90
2023-04-18T17:11:07.813Z,12.35
2023-04-18T17:13:36.353Z,13.85
2023-04-18T17:16:04.536Z,12.95
2023-04-18T17:18:34.133Z,16.77
2023-04-18T17:21:02.259Z,12.93
2023-04-18T17:23:32.705Z,14.32
2023-04-18T17:26:01.116Z,11.80
2023-04-18T17:28:29.148Z,11.20
2023-04-18T17:30:58.572Z,12.82
2023-04-18T17:33:29.384Z,11.10
2023-04-18T17:35:58.947Z,11.32
2023-04-18T17:38:27.015Z,10.75
2023-04-18T17:41:00.332Z,13.65
2023-04-18T17:43:28.637Z,11.60
2023-04-18T17:45:57.118Z,11.82
2023-04-18T17:48:25.935Z,12.98
2023-04-18T17:50:54.039Z,11.70
2023-04-18T17:53:23.623Z,10.63
2023-04-18T17:55:52.405Z,12.38
2023-04-18T17:58:21.059Z,11.50
2023-04-18T18:00:49.318Z,11.23
2023-04-18T18:03:18.445Z,11.77
2023-04-18T18:05:48.996Z,13.05
2023-04-18T18:08:17.293Z,10.23
2023-04-18T18:10:48.108Z,11.68
2023-04-18T18:13:16.219Z,14.13
2023-04-18T18:15:44.272Z,11.95
2023-04-18T18:18:12.420Z,12.40
2023-04-18T18:20:42.740Z,12.25
2023-04-18T18:23:11.141Z,10.80
2023-04-18T18:25:39.124Z,11.40
2023-04-18T18:28:08.753Z,11.93
2023-04-18T18:30:38.034Z,11.68
2023-04-18T18:33:11.610Z,12.23
2023-04-18T18:35:40.105Z,10.95
2023-04-18T18:38:08.534Z,11.00
2023-04-18T18:40:36.608Z,12.98
2023-04-18T18:43:04.886Z,12.60
2023-04-18T18:45:36.971Z,11.07
2023-04-18T18:48:07.366Z,11.52
2023-04-18T18:50:38.541Z,12.05
2023-04-18T18:53:10.088Z,10.32
2023-04-18T18:55:38.107Z,11.10
2023-04-18T18:58:07.916Z,11.02
2023-04-18T19:00:37.333Z,11.77
2023-04-18T19:03:05.767Z,9.15
2023-04-18T19:05:33.957Z,8.95
2023-04-18T19:08:04.130Z,10.10
2023-04-18T19:10:32.266Z,10.10
2023-04-18T19:13:01.294Z,9.27
2023-04-18T19:15:29.374Z,10.38
2023-04-18T19:17:58.920Z,10.90
2023-04-18T19:20:28.817Z,9.93
2023-04-18T19:22:57.378Z,10.25
2023-04-18T19:25:27.791Z,11.60
2023-04-18T19:27:55.909Z,12.25
2023-04-18T19:30:24.969Z,9.55
2023-04-18T19:32:53.201Z,9.35
2023-04-18T19:35:23.480Z,10.40
2023-04-18T19:37:51.547Z,10.50
2023-04-18T19:40:19.692Z,10.35
2023-04-18T19:42:47.792Z,10.00
2023-04-18T19:45:16.141Z,11.23
2023-04-18T19:47:45.244Z,10.88
2023-04-18T19:50:13.308Z,11.68
2023-04-18T19:52:42.792Z,10.80
2023-04-18T19:55:11.676Z,11.75
2023-04-18T19:57:41.408Z,10.35
2023-04-18T20:00:12.189Z,10.27
2023-04-18T20:02:42.327Z,10.45
2023-04-18T20:05:12.611Z,10.05
2023-04-18T20:07:42.687Z,10.52
2023-04-18T20:10:11.448Z,10.90
2023-04-18T20:12:39.533Z,11.88
2023-04-18T20:15:08.813Z,12.10
2023-04-18T20:17:36.941Z,11.32
2023-04-18T20:20:08.250Z,12.05
2023-04-18T20:22:37.652Z,12.50
2023-04-18T20:25:08.695Z,11.55
2023-04-18T20:27:36.881Z,12.65
2023-04-18T20:30:05.849Z,11.10
2023-04-18T20:32:34.664Z,12.43
2023-04-18T20:35:04.399Z,12.80
2023-04-18T20:37:36.768Z,13.65
2023-04-18T20:40:10.766Z,11.52
2023-04-18T20:42:42.696Z,10.73
2023-04-18T20:45:14.167Z,12.80
2023-04-18T20:47:42.507Z,11.68
2023-04-18T20:50:11.389Z,14.02
2023-04-18T20:52:42.678Z,11.73
2023-04-18T20:55:12.612Z,12.43
2023-04-18T20:57:40.851Z,11.95
2023-04-18T21:00:10.681Z,12.02
2023-04-18T21:02:39.020Z,11.35
2023-04-18T21:05:07.864Z,10.88
2023-04-18T21:07:36.113Z,12.48
2023-04-18T21:10:04.353Z,13.40
2023-04-18T21:12:33.826Z,11.63
2023-04-18T21:15:02.218Z,11.65
2023-04-18T21:17:30.372Z,12.13
2023-04-18T21:19:58.494Z,11.80
2023-04-18T21:22:26.734Z,11.43
2023-04-18T21:24:54.877Z,11.63
2023-04-18T21:27:22.975Z,12.55
2023-04-18T21:29:52.569Z,12.02
2023-04-18T21:32:21.119Z,11.77
2023-04-18T21:34:49.192Z,12.68
2023-04-18T21:37:17.355Z,11.18
2023-04-18T21:39:45.479Z,14.73
2023-04-18T21:42:13.526Z,12.77
2023-04-18T21:44:41.666Z,12.50
2023-04-18T21:47:11.127Z,11.98
2023-04-18T21:49:39.213Z,11.38
2023-04-18T21:52:07.700Z,13.27
2023-04-18T21:54:35.774Z,11.98
2023-04-18T21:57:05.965Z,11.73
2023-04-18T21:59:34.197Z,10.82
2023-04-18T22:02:02.366Z,12.23
2023-04-18T22:04:34.580Z,13.65
2023-04-18T22:07:02.761Z,11.70
2023-04-18T22:09:36.270Z,11.57
2023-04-18T22:12:05.188Z,12.98
2023-04-18T22:14:33.236Z,10.57
2023-04-18T22:17:03.332Z,13.30
2023-04-18T22:19:31.533Z,12.35
2023-04-18T22:22:00.979Z,12.10
2023-04-18T22:24:29.104Z,13.43
2023-04-18T22:26:57.146Z,11.63
2023-04-18T22:29:25.335Z,12.23
2023-04-18T22:31:53.404Z,12.20
2023-04-18T22:34:21.544Z,12.43
2023-04-18T22:36:49.716Z,12.63
2023-04-18T22:39:19.311Z,13.93
2023-04-18T22:41:50.096Z,13.48
2023-04-18T22:44:18.137Z,12.40
2023-04-18T22:46:48.191Z,11.65
2023-04-18T22:49:18.011Z,13.65
2023-04-18T22:51:46.567Z,12.38
2023-04-18T22:54:14.880Z,12.15
2023-04-18T22:56:44.505Z,12.50
2023-04-18T22:59:12.693Z,12.30
2023-04-18T23:01:40.796Z,12.48
2023-04-18T23:04:09.196Z,13.50
2023-04-18T23:06:39.846Z,10.63
2023-04-18T23:09:09.510Z,13.40
2023-04-18T23:11:37.644Z,15.75
2023-04-18T23:14:08.645Z,12.02
2023-04-18T23:16:36.882Z,12.25
2023-04-18T23:19:05.086Z,12.63
2023-04-18T23:21:33.250Z,12.48
2023-04-18T23:24:01.504Z,11.82
2023-04-18T23:26:29.689Z,12.52
2023-04-18T23:28:57.862Z,12.43
2023-04-18T23:31:27.369Z,12.40
2023-04-18T23:33:56.662Z,13.02
2023-04-18T23:36:27.823Z,14.90
2023-04-18T23:38:58.858Z,12.13
2023-04-18T23:41:27.082Z,14.13
2023-04-18T23:43:55.131Z,12.77
2023-04-18T23:46:23.235Z,12.57
2023-04-18T23:48:52.990Z,12.57
2023-04-18T23:51:21.089Z,13.82
2023-04-18T23:53:49.447Z,12.75
2023-04-18T23:56:17.608Z,12.88
2023-04-18T23:58:45.714Z,13.43
